Wetterdaten für den Flughafen Lübeck Blankensee


ADDS - METARS form results Aviation Digital Data Service (ADDS) Output produced by METARs form (0919 UTC 20 November 2017)
found at http://www.aviationweather.gov/adds/metars/
 
EDHL 200850Z 26008KT CAVOK 05/03 Q1013
TAF EDHL 200800Z 2009/2018 24006KT 9999 SCT025 PROB30 TEMPO 2016/2018 BKN012

Nord: Hamburg, Lübeck
Ost: Schwerin, Rostock
Süd: Hannover
West: Bremen, Nordhloz

 

Copyright © 2016 Flugschule Hohensee